sensor_id;sensor_type;location;lat;lon;timestamp;P1;durP1;ratioP1;P2;durP2;ratioP2
71734;SDS011;59577;52.122;5.406;2023-02-22T00:00:41;26.48;;;10.68;;
71734;SDS011;59577;52.122;5.406;2023-02-22T00:03:09;28.90;;;12.10;;
71734;SDS011;59577;52.122;5.406;2023-02-22T00:05:37;27.38;;;12.02;;
71734;SDS011;59577;52.122;5.406;2023-02-22T00:08:05;27.45;;;10.57;;
71734;SDS011;59577;52.122;5.406;2023-02-22T00:10:34;23.57;;;10.63;;
71734;SDS011;59577;52.122;5.406;2023-02-22T00:13:04;24.52;;;9.77;;
71734;SDS011;59577;52.122;5.406;2023-02-22T00:15:32;25.08;;;9.40;;
71734;SDS011;59577;52.122;5.406;2023-02-22T00:18:00;26.58;;;10.60;;
71734;SDS011;59577;52.122;5.406;2023-02-22T00:20:27;30.67;;;11.23;;
71734;SDS011;59577;52.122;5.406;2023-02-22T00:22:53;30.83;;;10.70;;
71734;SDS011;59577;52.122;5.406;2023-02-22T00:25:22;24.50;;;10.40;;
71734;SDS011;59577;52.122;5.406;2023-02-22T00:27:50;24.35;;;10.13;;
71734;SDS011;59577;52.122;5.406;2023-02-22T00:30:22;22.70;;;9.48;;
71734;SDS011;59577;52.122;5.406;2023-02-22T00:32:52;22.15;;;9.32;;
71734;SDS011;59577;52.122;5.406;2023-02-22T00:35:22;23.97;;;9.27;;
71734;SDS011;59577;52.122;5.406;2023-02-22T00:37:54;24.42;;;10.23;;
71734;SDS011;59577;52.122;5.406;2023-02-22T00:40:27;20.38;;;9.25;;
71734;SDS011;59577;52.122;5.406;2023-02-22T00:42:59;23.65;;;9.88;;
71734;SDS011;59577;52.122;5.406;2023-02-22T00:45:27;22.08;;;9.75;;
71734;SDS011;59577;52.122;5.406;2023-02-22T00:47:56;20.27;;;9.07;;
71734;SDS011;59577;52.122;5.406;2023-02-22T00:50:27;18.80;;;8.65;;
71734;SDS011;59577;52.122;5.406;2023-02-22T00:52:56;22.60;;;9.25;;
71734;SDS011;59577;52.122;5.406;2023-02-22T00:55:25;19.08;;;9.25;;
71734;SDS011;59577;52.122;5.406;2023-02-22T00:57:54;21.85;;;10.20;;
71734;SDS011;59577;52.122;5.406;2023-02-22T01:00:23;21.33;;;9.90;;
71734;SDS011;59577;52.122;5.406;2023-02-22T01:03:02;20.92;;;8.98;;
71734;SDS011;59577;52.122;5.406;2023-02-22T01:05:32;18.30;;;8.48;;
71734;SDS011;59577;52.122;5.406;2023-02-22T01:07:59;17.35;;;8.07;;
71734;SDS011;59577;52.122;5.406;2023-02-22T01:10:27;19.83;;;8.35;;
71734;SDS011;59577;52.122;5.406;2023-02-22T01:12:55;21.83;;;9.13;;
71734;SDS011;59577;52.122;5.406;2023-02-22T01:15:23;24.23;;;9.75;;
71734;SDS011;59577;52.122;5.406;2023-02-22T01:17:54;18.92;;;7.93;;
71734;SDS011;59577;52.122;5.406;2023-02-22T01:20:21;19.10;;;8.70;;
71734;SDS011;59577;52.122;5.406;2023-02-22T01:22:49;24.17;;;9.85;;
71734;SDS011;59577;52.122;5.406;2023-02-22T01:25:20;22.07;;;9.73;;
71734;SDS011;59577;52.122;5.406;2023-02-22T01:27:49;22.30;;;9.60;;
71734;SDS011;59577;52.122;5.406;2023-02-22T01:30:21;24.00;;;9.45;;
71734;SDS011;59577;52.122;5.406;2023-02-22T01:32:49;22.77;;;10.13;;
71734;SDS011;59577;52.122;5.406;2023-02-22T01:35:17;19.08;;;8.85;;
71734;SDS011;59577;52.122;5.406;2023-02-22T01:37:48;21.33;;;8.50;;
71734;SDS011;59577;52.122;5.406;2023-02-22T01:40:19;19.42;;;8.85;;
71734;SDS011;59577;52.122;5.406;2023-02-22T01:42:57;17.63;;;8.70;;
71734;SDS011;59577;52.122;5.406;2023-02-22T01:50:27;22.20;;;9.43;;
71734;SDS011;59577;52.122;5.406;2023-02-22T01:52:56;20.85;;;9.05;;
71734;SDS011;59577;52.122;5.406;2023-02-22T01:55:23;16.05;;;7.60;;
71734;SDS011;59577;52.122;5.406;2023-02-22T01:57:59;16.90;;;8.35;;
71734;SDS011;59577;52.122;5.406;2023-02-22T02:00:26;19.00;;;8.98;;
71734;SDS011;59577;52.122;5.406;2023-02-22T02:02:54;22.07;;;9.07;;
71734;SDS011;59577;52.122;5.406;2023-02-22T02:05:25;22.77;;;9.40;;
71734;SDS011;59577;52.122;5.406;2023-02-22T02:07:53;20.65;;;8.85;;
71734;SDS011;59577;52.122;5.406;2023-02-22T02:10:19;21.98;;;9.77;;
71734;SDS011;59577;52.122;5.406;2023-02-22T02:12:47;19.67;;;9.30;;
71734;SDS011;59577;52.122;5.406;2023-02-22T02:17:51;20.67;;;8.90;;
71734;SDS011;59577;52.122;5.406;2023-02-22T02:20:36;23.58;;;10.60;;
71734;SDS011;59577;52.122;5.406;2023-02-22T02:29:00;22.47;;;9.57;;
71734;SDS011;59577;52.122;5.406;2023-02-22T02:40:38;25.65;;;10.63;;
71734;SDS011;59577;52.122;5.406;2023-02-22T02:43:14;25.30;;;10.43;;
71734;SDS011;59577;52.122;5.406;2023-02-22T02:45:58;26.60;;;10.70;;
71734;SDS011;59577;52.122;5.406;2023-02-22T02:48:31;28.98;;;11.13;;
71734;SDS011;59577;52.122;5.406;2023-02-22T02:51:00;25.98;;;10.15;;
71734;SDS011;59577;52.122;5.406;2023-02-22T02:53:35;25.52;;;10.32;;
71734;SDS011;59577;52.122;5.406;2023-02-22T02:56:04;27.50;;;11.67;;
71734;SDS011;59577;52.122;5.406;2023-02-22T02:58:31;27.80;;;11.93;;
71734;SDS011;59577;52.122;5.406;2023-02-22T03:00:59;25.58;;;10.95;;
71734;SDS011;59577;52.122;5.406;2023-02-22T03:06:27;31.52;;;12.10;;
71734;SDS011;59577;52.122;5.406;2023-02-22T03:12:31;26.98;;;11.80;;
71734;SDS011;59577;52.122;5.406;2023-02-22T03:14:47;32.35;;;12.07;;
71734;SDS011;59577;52.122;5.406;2023-02-22T03:17:44;26.60;;;10.88;;
71734;SDS011;59577;52.122;5.406;2023-02-22T03:20:21;28.08;;;11.65;;
71734;SDS011;59577;52.122;5.406;2023-02-22T03:23:04;33.17;;;12.17;;
71734;SDS011;59577;52.122;5.406;2023-02-22T03:25:37;29.20;;;11.38;;
71734;SDS011;59577;52.122;5.406;2023-02-22T03:28:13;28.92;;;11.75;;
71734;SDS011;59577;52.122;5.406;2023-02-22T03:30:44;27.65;;;11.27;;
71734;SDS011;59577;52.122;5.406;2023-02-22T03:33:35;28.20;;;11.02;;
71734;SDS011;59577;52.122;5.406;2023-02-22T03:36:17;26.77;;;10.83;;
71734;SDS011;59577;52.122;5.406;2023-02-22T03:38:50;30.42;;;11.60;;
71734;SDS011;59577;52.122;5.406;2023-02-22T03:41:21;30.02;;;11.45;;
71734;SDS011;59577;52.122;5.406;2023-02-22T03:43:57;32.47;;;12.48;;
71734;SDS011;59577;52.122;5.406;2023-02-22T03:46:29;33.50;;;12.43;;
71734;SDS011;59577;52.122;5.406;2023-02-22T03:48:58;31.47;;;12.57;;
71734;SDS011;59577;52.122;5.406;2023-02-22T03:51:29;31.15;;;12.82;;
71734;SDS011;59577;52.122;5.406;2023-02-22T03:53:56;28.48;;;11.50;;
71734;SDS011;59577;52.122;5.406;2023-02-22T03:56:24;30.02;;;11.88;;
71734;SDS011;59577;52.122;5.406;2023-02-22T03:59:08;34.70;;;12.07;;
71734;SDS011;59577;52.122;5.406;2023-02-22T04:01:35;30.73;;;12.67;;
71734;SDS011;59577;52.122;5.406;2023-02-22T04:04:02;34.17;;;12.82;;
71734;SDS011;59577;52.122;5.406;2023-02-22T04:06:30;31.15;;;12.25;;
71734;SDS011;59577;52.122;5.406;2023-02-22T04:08:56;33.97;;;12.45;;
71734;SDS011;59577;52.122;5.406;2023-02-22T04:11:23;33.53;;;12.68;;
71734;SDS011;59577;52.122;5.406;2023-02-22T04:13:49;31.73;;;12.17;;
71734;SDS011;59577;52.122;5.406;2023-02-22T04:16:15;39.25;;;13.00;;
71734;SDS011;59577;52.122;5.406;2023-02-22T04:18:42;31.38;;;12.38;;
71734;SDS011;59577;52.122;5.406;2023-02-22T04:21:09;31.83;;;13.15;;
71734;SDS011;59577;52.122;5.406;2023-02-22T04:23:35;32.42;;;12.77;;
71734;SDS011;59577;52.122;5.406;2023-02-22T04:26:02;32.37;;;12.30;;
71734;SDS011;59577;52.122;5.406;2023-02-22T04:28:28;38.78;;;13.18;;
71734;SDS011;59577;52.122;5.406;2023-02-22T04:30:55;35.58;;;13.20;;
71734;SDS011;59577;52.122;5.406;2023-02-22T04:33:21;40.03;;;14.02;;
71734;SDS011;59577;52.122;5.406;2023-02-22T04:35:48;37.25;;;12.48;;
71734;SDS011;59577;52.122;5.406;2023-02-22T04:38:14;33.73;;;12.33;;
71734;SDS011;59577;52.122;5.406;2023-02-22T04:40:41;32.50;;;12.48;;
71734;SDS011;59577;52.122;5.406;2023-02-22T04:43:07;30.95;;;11.45;;
71734;SDS011;59577;52.122;5.406;2023-02-22T04:45:34;38.08;;;13.18;;
71734;SDS011;59577;52.122;5.406;2023-02-22T04:48:01;31.35;;;12.90;;
71734;SDS011;59577;52.122;5.406;2023-02-22T04:50:27;31.63;;;12.63;;
71734;SDS011;59577;52.122;5.406;2023-02-22T04:52:54;36.17;;;13.13;;
71734;SDS011;59577;52.122;5.406;2023-02-22T04:55:21;32.00;;;12.25;;
71734;SDS011;59577;52.122;5.406;2023-02-22T04:57:47;38.58;;;13.30;;
71734;SDS011;59577;52.122;5.406;2023-02-22T05:00:15;32.80;;;11.00;;
71734;SDS011;59577;52.122;5.406;2023-02-22T05:02:43;39.87;;;12.20;;
71734;SDS011;59577;52.122;5.406;2023-02-22T05:05:12;38.10;;;12.73;;
71734;SDS011;59577;52.122;5.406;2023-02-22T05:07:42;37.08;;;12.68;;
71734;SDS011;59577;52.122;5.406;2023-02-22T05:13:01;34.97;;;11.68;;
71734;SDS011;59577;52.122;5.406;2023-02-22T05:15:29;39.57;;;12.70;;
71734;SDS011;59577;52.122;5.406;2023-02-22T05:17:55;43.53;;;13.25;;
71734;SDS011;59577;52.122;5.406;2023-02-22T05:20:23;38.65;;;12.55;;
71734;SDS011;59577;52.122;5.406;2023-02-22T05:22:56;37.53;;;12.20;;
71734;SDS011;59577;52.122;5.406;2023-02-22T05:25:24;39.30;;;12.50;;
71734;SDS011;59577;52.122;5.406;2023-02-22T05:27:55;35.53;;;12.40;;
71734;SDS011;59577;52.122;5.406;2023-02-22T05:30:27;37.45;;;13.43;;
71734;SDS011;59577;52.122;5.406;2023-02-22T05:32:55;40.33;;;13.30;;
71734;SDS011;59577;52.122;5.406;2023-02-22T05:35:22;42.97;;;14.32;;
71734;SDS011;59577;52.122;5.406;2023-02-22T05:37:49;40.05;;;12.57;;
71734;SDS011;59577;52.122;5.406;2023-02-22T05:40:19;44.20;;;13.93;;
71734;SDS011;59577;52.122;5.406;2023-02-22T05:42:50;43.20;;;13.35;;
71734;SDS011;59577;52.122;5.406;2023-02-22T05:45:18;44.25;;;14.15;;
71734;SDS011;59577;52.122;5.406;2023-02-22T05:47:47;42.58;;;12.57;;
71734;SDS011;59577;52.122;5.406;2023-02-22T05:50:14;47.17;;;15.20;;
71734;SDS011;59577;52.122;5.406;2023-02-22T05:52:41;45.33;;;14.83;;
71734;SDS011;59577;52.122;5.406;2023-02-22T05:55:09;40.40;;;13.18;;
71734;SDS011;59577;52.122;5.406;2023-02-22T05:57:36;44.30;;;14.40;;
71734;SDS011;59577;52.122;5.406;2023-02-22T06:00:03;41.28;;;14.13;;
71734;SDS011;59577;52.122;5.406;2023-02-22T06:02:32;38.97;;;13.20;;
71734;SDS011;59577;52.122;5.406;2023-02-22T06:04:59;50.87;;;16.60;;
71734;SDS011;59577;52.122;5.406;2023-02-22T06:07:25;51.83;;;15.55;;
71734;SDS011;59577;52.122;5.406;2023-02-22T06:09:52;52.28;;;14.90;;
71734;SDS011;59577;52.122;5.406;2023-02-22T06:12:19;56.33;;;15.57;;
71734;SDS011;59577;52.122;5.406;2023-02-22T06:14:45;50.90;;;14.45;;
71734;SDS011;59577;52.122;5.406;2023-02-22T06:17:16;50.07;;;16.00;;
71734;SDS011;59577;52.122;5.406;2023-02-22T06:19:45;51.85;;;15.57;;
71734;SDS011;59577;52.122;5.406;2023-02-22T06:22:16;50.35;;;15.60;;
71734;SDS011;59577;52.122;5.406;2023-02-22T06:24:44;51.20;;;16.02;;
71734;SDS011;59577;52.122;5.406;2023-02-22T06:27:11;47.28;;;14.45;;
71734;SDS011;59577;52.122;5.406;2023-02-22T06:29:37;53.20;;;16.03;;
71734;SDS011;59577;52.122;5.406;2023-02-22T06:32:06;58.20;;;16.92;;
71734;SDS011;59577;52.122;5.406;2023-02-22T06:34:33;52.08;;;15.40;;
71734;SDS011;59577;52.122;5.406;2023-02-22T06:36:59;61.55;;;16.13;;
71734;SDS011;59577;52.122;5.406;2023-02-22T06:39:26;48.08;;;14.60;;
71734;SDS011;59577;52.122;5.406;2023-02-22T06:42:01;46.63;;;14.87;;
71734;SDS011;59577;52.122;5.406;2023-02-22T06:44:28;50.00;;;15.70;;
71734;SDS011;59577;52.122;5.406;2023-02-22T06:46:54;48.55;;;14.98;;
71734;SDS011;59577;52.122;5.406;2023-02-22T06:49:21;59.20;;;16.63;;
71734;SDS011;59577;52.122;5.406;2023-02-22T06:51:48;53.33;;;15.30;;
71734;SDS011;59577;52.122;5.406;2023-02-22T06:54:14;45.77;;;14.80;;
71734;SDS011;59577;52.122;5.406;2023-02-22T06:56:41;52.50;;;15.60;;
71734;SDS011;59577;52.122;5.406;2023-02-22T06:59:07;45.55;;;13.77;;
71734;SDS011;59577;52.122;5.406;2023-02-22T07:01:34;45.58;;;13.30;;
71734;SDS011;59577;52.122;5.406;2023-02-22T07:04:01;49.88;;;14.25;;
71734;SDS011;59577;52.122;5.406;2023-02-22T07:06:28;48.53;;;15.17;;
71734;SDS011;59577;52.122;5.406;2023-02-22T07:08:54;46.83;;;14.70;;
71734;SDS011;59577;52.122;5.406;2023-02-22T07:11:21;48.30;;;14.65;;
71734;SDS011;59577;52.122;5.406;2023-02-22T07:13:47;56.70;;;17.08;;
71734;SDS011;59577;52.122;5.406;2023-02-22T07:16:14;58.20;;;17.35;;
71734;SDS011;59577;52.122;5.406;2023-02-22T07:18:40;62.33;;;18.00;;
71734;SDS011;59577;52.122;5.406;2023-02-22T07:21:08;60.85;;;17.67;;
71734;SDS011;59577;52.122;5.406;2023-02-22T07:23:35;64.90;;;23.38;;
71734;SDS011;59577;52.122;5.406;2023-02-22T07:26:03;60.30;;;20.77;;
71734;SDS011;59577;52.122;5.406;2023-02-22T07:28:30;59.97;;;17.48;;
71734;SDS011;59577;52.122;5.406;2023-02-22T07:30:57;51.67;;;15.93;;
71734;SDS011;59577;52.122;5.406;2023-02-22T07:33:24;55.80;;;17.55;;
71734;SDS011;59577;52.122;5.406;2023-02-22T07:35:51;49.50;;;16.23;;
71734;SDS011;59577;52.122;5.406;2023-02-22T07:38:17;50.10;;;16.98;;
71734;SDS011;59577;52.122;5.406;2023-02-22T07:40:45;50.05;;;16.10;;
71734;SDS011;59577;52.122;5.406;2023-02-22T07:45:49;53.60;;;16.48;;
71734;SDS011;59577;52.122;5.406;2023-02-22T07:48:18;48.67;;;15.60;;
71734;SDS011;59577;52.122;5.406;2023-02-22T07:50:47;56.85;;;16.58;;
71734;SDS011;59577;52.122;5.406;2023-02-22T07:53:15;54.10;;;16.35;;
71734;SDS011;59577;52.122;5.406;2023-02-22T07:55:43;55.83;;;17.27;;
71734;SDS011;59577;52.122;5.406;2023-02-22T07:58:14;53.45;;;16.23;;
71734;SDS011;59577;52.122;5.406;2023-02-22T08:00:42;42.05;;;14.20;;
71734;SDS011;59577;52.122;5.406;2023-02-22T08:03:10;41.83;;;14.93;;
71734;SDS011;59577;52.122;5.406;2023-02-22T08:05:40;52.25;;;14.82;;
71734;SDS011;59577;52.122;5.406;2023-02-22T08:08:13;41.83;;;13.60;;
71734;SDS011;59577;52.122;5.406;2023-02-22T08:10:45;50.90;;;15.85;;
71734;SDS011;59577;52.122;5.406;2023-02-22T08:13:12;44.88;;;15.77;;
71734;SDS011;59577;52.122;5.406;2023-02-22T08:15:39;50.58;;;17.63;;
71734;SDS011;59577;52.122;5.406;2023-02-22T08:18:08;57.88;;;18.15;;
71734;SDS011;59577;52.122;5.406;2023-02-22T08:20:37;53.43;;;17.33;;
71734;SDS011;59577;52.122;5.406;2023-02-22T08:23:05;49.35;;;15.65;;
71734;SDS011;59577;52.122;5.406;2023-02-22T08:25:33;54.50;;;16.20;;
71734;SDS011;59577;52.122;5.406;2023-02-22T08:28:01;39.72;;;13.50;;
71734;SDS011;59577;52.122;5.406;2023-02-22T08:30:30;36.40;;;13.48;;
71734;SDS011;59577;52.122;5.406;2023-02-22T08:32:57;30.53;;;11.90;;
71734;SDS011;59577;52.122;5.406;2023-02-22T08:35:24;31.55;;;12.00;;
71734;SDS011;59577;52.122;5.406;2023-02-22T08:37:53;33.80;;;12.57;;
71734;SDS011;59577;52.122;5.406;2023-02-22T08:40:24;29.42;;;11.90;;
71734;SDS011;59577;52.122;5.406;2023-02-22T08:42:53;30.50;;;13.10;;
71734;SDS011;59577;52.122;5.406;2023-02-22T08:45:20;30.20;;;11.63;;
71734;SDS011;59577;52.122;5.406;2023-02-22T08:47:46;32.03;;;12.00;;
71734;SDS011;59577;52.122;5.406;2023-02-22T08:50:23;35.08;;;12.82;;
71734;SDS011;59577;52.122;5.406;2023-02-22T08:52:54;33.28;;;13.00;;
71734;SDS011;59577;52.122;5.406;2023-02-22T08:55:24;32.97;;;12.13;;
71734;SDS011;59577;52.122;5.406;2023-02-22T08:57:53;31.00;;;12.43;;
71734;SDS011;59577;52.122;5.406;2023-02-22T09:00:20;32.47;;;12.15;;
71734;SDS011;59577;52.122;5.406;2023-02-22T09:02:53;29.52;;;12.18;;
71734;SDS011;59577;52.122;5.406;2023-02-22T09:05:30;31.27;;;11.95;;
71734;SDS011;59577;52.122;5.406;2023-02-22T09:07:58;28.35;;;11.43;;
71734;SDS011;59577;52.122;5.406;2023-02-22T09:10:27;35.17;;;11.90;;
71734;SDS011;59577;52.122;5.406;2023-02-22T09:12:57;37.05;;;13.15;;
71734;SDS011;59577;52.122;5.406;2023-02-22T09:15:50;34.53;;;13.07;;
71734;SDS011;59577;52.122;5.406;2023-02-22T09:18:16;31.95;;;12.75;;
71734;SDS011;59577;52.122;5.406;2023-02-22T09:20:43;31.75;;;12.27;;
71734;SDS011;59577;52.122;5.406;2023-02-22T09:23:10;32.50;;;13.13;;
71734;SDS011;59577;52.122;5.406;2023-02-22T09:25:39;30.45;;;12.15;;
71734;SDS011;59577;52.122;5.406;2023-02-22T09:28:06;30.42;;;12.25;;
71734;SDS011;59577;52.122;5.406;2023-02-22T09:30:34;29.85;;;12.88;;
71734;SDS011;59577;52.122;5.406;2023-02-22T09:33:02;31.33;;;13.10;;
71734;SDS011;59577;52.122;5.406;2023-02-22T09:35:38;34.57;;;13.40;;
71734;SDS011;59577;52.122;5.406;2023-02-22T09:38:13;32.55;;;13.80;;
71734;SDS011;59577;52.122;5.406;2023-02-22T09:40:42;32.42;;;12.48;;
71734;SDS011;59577;52.122;5.406;2023-02-22T09:43:38;32.95;;;13.05;;
71734;SDS011;59577;52.122;5.406;2023-02-22T09:49:15;29.03;;;12.73;;
71734;SDS011;59577;52.122;5.406;2023-02-22T09:51:49;30.40;;;12.13;;
71734;SDS011;59577;52.122;5.406;2023-02-22T09:54:22;28.10;;;11.93;;
71734;SDS011;59577;52.122;5.406;2023-02-22T09:57:03;32.00;;;12.82;;
71734;SDS011;59577;52.122;5.406;2023-02-22T09:59:35;29.42;;;12.43;;
71734;SDS011;59577;52.122;5.406;2023-02-22T10:02:15;34.13;;;12.57;;
71734;SDS011;59577;52.122;5.406;2023-02-22T10:04:58;31.83;;;12.90;;
71734;SDS011;59577;52.122;5.406;2023-02-22T10:07:32;32.85;;;12.05;;
71734;SDS011;59577;52.122;5.406;2023-02-22T10:10:04;30.77;;;12.80;;
71734;SDS011;59577;52.122;5.406;2023-02-22T10:12:36;30.20;;;12.27;;
71734;SDS011;59577;52.122;5.406;2023-02-22T10:18:43;30.60;;;13.18;;
71734;SDS011;59577;52.122;5.406;2023-02-22T10:21:11;36.10;;;12.60;;
71734;SDS011;59577;52.122;5.406;2023-02-22T10:26:27;28.10;;;13.20;;
71734;SDS011;59577;52.122;5.406;2023-02-22T10:31:30;28.77;;;12.38;;
71734;SDS011;59577;52.122;5.406;2023-02-22T10:34:01;26.42;;;11.38;;
71734;SDS011;59577;52.122;5.406;2023-02-22T10:36:30;27.55;;;12.45;;
71734;SDS011;59577;52.122;5.406;2023-02-22T10:39:01;28.52;;;13.55;;
71734;SDS011;59577;52.122;5.406;2023-02-22T10:41:54;27.17;;;12.20;;
71734;SDS011;59577;52.122;5.406;2023-02-22T10:44:23;29.83;;;12.65;;
71734;SDS011;59577;52.122;5.406;2023-02-22T10:46:50;29.85;;;12.65;;
71734;SDS011;59577;52.122;5.406;2023-02-22T10:49:20;24.50;;;11.60;;
71734;SDS011;59577;52.122;5.406;2023-02-22T10:51:56;26.80;;;10.75;;
71734;SDS011;59577;52.122;5.406;2023-02-22T10:54:31;23.40;;;11.87;;
71734;SDS011;59577;52.122;5.406;2023-02-22T10:57:01;26.13;;;10.85;;
71734;SDS011;59577;52.122;5.406;2023-02-22T10:59:39;26.42;;;11.77;;
71734;SDS011;59577;52.122;5.406;2023-02-22T11:02:20;28.05;;;12.27;;
71734;SDS011;59577;52.122;5.406;2023-02-22T11:04:57;25.92;;;11.73;;
71734;SDS011;59577;52.122;5.406;2023-02-22T11:07:27;23.90;;;10.63;;
71734;SDS011;59577;52.122;5.406;2023-02-22T11:09:59;28.00;;;11.75;;
71734;SDS011;59577;52.122;5.406;2023-02-22T11:12:29;26.67;;;11.77;;
71734;SDS011;59577;52.122;5.406;2023-02-22T11:15:22;24.92;;;11.45;;
71734;SDS011;59577;52.122;5.406;2023-02-22T11:17:56;27.83;;;11.65;;
71734;SDS011;59577;52.122;5.406;2023-02-22T11:20:27;27.33;;;11.57;;
71734;SDS011;59577;52.122;5.406;2023-02-22T11:23:01;25.80;;;12.05;;
71734;SDS011;59577;52.122;5.406;2023-02-22T11:25:38;27.77;;;11.50;;
71734;SDS011;59577;52.122;5.406;2023-02-22T11:30:41;30.45;;;11.48;;
71734;SDS011;59577;52.122;5.406;2023-02-22T11:35:55;28.23;;;11.80;;
71734;SDS011;59577;52.122;5.406;2023-02-22T11:38:27;29.30;;;12.55;;
71734;SDS011;59577;52.122;5.406;2023-02-22T11:43:40;32.25;;;11.95;;
71734;SDS011;59577;52.122;5.406;2023-02-22T11:48:42;34.22;;;12.43;;
71734;SDS011;59577;52.122;5.406;2023-02-22T11:54:16;32.30;;;11.48;;
71734;SDS011;59577;52.122;5.406;2023-02-22T11:56:51;32.20;;;12.20;;
71734;SDS011;59577;52.122;5.406;2023-02-22T11:59:31;27.73;;;11.97;;
71734;SDS011;59577;52.122;5.406;2023-02-22T12:05:38;34.67;;;12.18;;
71734;SDS011;59577;52.122;5.406;2023-02-22T12:11:21;31.00;;;12.05;;
71734;SDS011;59577;52.122;5.406;2023-02-22T12:16:37;27.98;;;11.10;;
71734;SDS011;59577;52.122;5.406;2023-02-22T12:19:18;30.02;;;11.80;;
71734;SDS011;59577;52.122;5.406;2023-02-22T12:21:57;34.22;;;12.30;;
71734;SDS011;59577;52.122;5.406;2023-02-22T12:24:39;32.08;;;12.93;;
71734;SDS011;59577;52.122;5.406;2023-02-22T12:27:14;31.63;;;12.13;;
71734;SDS011;59577;52.122;5.406;2023-02-22T12:29:47;31.75;;;10.93;;
71734;SDS011;59577;52.122;5.406;2023-02-22T12:35:01;31.45;;;11.77;;
71734;SDS011;59577;52.122;5.406;2023-02-22T12:37:47;31.75;;;12.20;;
71734;SDS011;59577;52.122;5.406;2023-02-22T12:41:00;28.83;;;11.67;;
71734;SDS011;59577;52.122;5.406;2023-02-22T12:46:27;27.83;;;12.07;;
71734;SDS011;59577;52.122;5.406;2023-02-22T12:51:47;29.60;;;11.70;;
71734;SDS011;59577;52.122;5.406;2023-02-22T13:03:36;28.88;;;11.20;;
71734;SDS011;59577;52.122;5.406;2023-02-22T13:11:35;28.35;;;10.68;;
71734;SDS011;59577;52.122;5.406;2023-02-22T13:20:14;26.55;;;11.50;;
71734;SDS011;59577;52.122;5.406;2023-02-22T13:23:04;30.23;;;12.57;;
71734;SDS011;59577;52.122;5.406;2023-02-22T13:28:20;27.55;;;11.82;;
71734;SDS011;59577;52.122;5.406;2023-02-22T13:38:59;25.10;;;11.00;;
71734;SDS011;59577;52.122;5.406;2023-02-22T13:52:47;24.75;;;11.05;;
71734;SDS011;59577;52.122;5.406;2023-02-22T13:55:18;26.38;;;10.98;;
71734;SDS011;59577;52.122;5.406;2023-02-22T13:58:00;23.50;;;10.63;;
71734;SDS011;59577;52.122;5.406;2023-02-22T14:00:52;22.27;;;11.43;;
71734;SDS011;59577;52.122;5.406;2023-02-22T14:06:09;23.40;;;10.60;;
71734;SDS011;59577;52.122;5.406;2023-02-22T14:09:08;20.95;;;10.48;;
71734;SDS011;59577;52.122;5.406;2023-02-22T14:11:45;25.17;;;10.88;;
71734;SDS011;59577;52.122;5.406;2023-02-22T14:14:13;23.55;;;10.45;;
71734;SDS011;59577;52.122;5.406;2023-02-22T14:16:42;22.67;;;10.83;;
71734;SDS011;59577;52.122;5.406;2023-02-22T14:19:19;24.88;;;10.73;;
71734;SDS011;59577;52.122;5.406;2023-02-22T14:21:59;24.50;;;11.18;;
71734;SDS011;59577;52.122;5.406;2023-02-22T14:24:28;23.23;;;11.68;;
71734;SDS011;59577;52.122;5.406;2023-02-22T14:27:05;24.17;;;11.25;;
71734;SDS011;59577;52.122;5.406;2023-02-22T14:29:31;25.23;;;11.97;;
71734;SDS011;59577;52.122;5.406;2023-02-22T14:32:07;22.08;;;11.15;;
71734;SDS011;59577;52.122;5.406;2023-02-22T14:34:40;18.98;;;10.68;;
71734;SDS011;59577;52.122;5.406;2023-02-22T14:37:21;21.88;;;11.13;;
71734;SDS011;59577;52.122;5.406;2023-02-22T14:39:52;20.40;;;11.45;;
71734;SDS011;59577;52.122;5.406;2023-02-22T14:42:32;21.70;;;11.13;;
71734;SDS011;59577;52.122;5.406;2023-02-22T14:47:43;18.15;;;9.20;;
71734;SDS011;59577;52.122;5.406;2023-02-22T14:50:21;18.23;;;9.35;;
71734;SDS011;59577;52.122;5.406;2023-02-22T14:55:58;18.87;;;10.20;;
71734;SDS011;59577;52.122;5.406;2023-02-22T14:58:52;17.33;;;9.35;;
71734;SDS011;59577;52.122;5.406;2023-02-22T15:01:30;20.48;;;10.10;;
71734;SDS011;59577;52.122;5.406;2023-02-22T15:04:27;19.05;;;10.23;;
71734;SDS011;59577;52.122;5.406;2023-02-22T15:06:58;18.90;;;10.15;;
71734;SDS011;59577;52.122;5.406;2023-02-22T15:09:32;17.57;;;10.00;;
71734;SDS011;59577;52.122;5.406;2023-02-22T15:14:33;19.05;;;9.10;;
71734;SDS011;59577;52.122;5.406;2023-02-22T15:17:08;15.00;;;8.73;;
71734;SDS011;59577;52.122;5.406;2023-02-22T15:19:42;18.95;;;10.65;;
71734;SDS011;59577;52.122;5.406;2023-02-22T15:24:55;22.48;;;9.18;;
71734;SDS011;59577;52.122;5.406;2023-02-22T15:27:26;18.52;;;10.10;;
71734;SDS011;59577;52.122;5.406;2023-02-22T15:29:58;20.02;;;9.73;;
71734;SDS011;59577;52.122;5.406;2023-02-22T15:35:29;19.17;;;9.40;;
71734;SDS011;59577;52.122;5.406;2023-02-22T15:37:59;16.52;;;9.63;;
71734;SDS011;59577;52.122;5.406;2023-02-22T15:40:35;18.88;;;10.40;;
71734;SDS011;59577;52.122;5.406;2023-02-22T15:43:15;16.33;;;9.32;;
71734;SDS011;59577;52.122;5.406;2023-02-22T15:45:54;19.55;;;10.15;;
71734;SDS011;59577;52.122;5.406;2023-02-22T15:48:21;21.57;;;10.17;;
71734;SDS011;59577;52.122;5.406;2023-02-22T15:51:08;16.63;;;8.90;;
71734;SDS011;59577;52.122;5.406;2023-02-22T15:53:40;16.90;;;9.85;;
71734;SDS011;59577;52.122;5.406;2023-02-22T15:56:13;22.25;;;11.05;;
71734;SDS011;59577;52.122;5.406;2023-02-22T15:58:42;16.63;;;10.00;;
71734;SDS011;59577;52.122;5.406;2023-02-22T16:01:18;22.33;;;10.13;;
71734;SDS011;59577;52.122;5.406;2023-02-22T16:03:47;18.17;;;10.43;;
71734;SDS011;59577;52.122;5.406;2023-02-22T16:08:59;19.58;;;11.00;;
71734;SDS011;59577;52.122;5.406;2023-02-22T16:11:33;21.58;;;10.88;;
71734;SDS011;59577;52.122;5.406;2023-02-22T16:14:23;21.03;;;10.17;;
71734;SDS011;59577;52.122;5.406;2023-02-22T16:17:08;19.02;;;10.27;;
71734;SDS011;59577;52.122;5.406;2023-02-22T16:19:40;17.45;;;9.75;;
71734;SDS011;59577;52.122;5.406;2023-02-22T16:22:22;18.27;;;10.13;;
71734;SDS011;59577;52.122;5.406;2023-02-22T16:24:52;18.85;;;9.23;;
71734;SDS011;59577;52.122;5.406;2023-02-22T16:27:21;22.00;;;11.17;;
71734;SDS011;59577;52.122;5.406;2023-02-22T16:32:49;18.75;;;10.77;;
71734;SDS011;59577;52.122;5.406;2023-02-22T16:35:16;23.20;;;13.10;;
71734;SDS011;59577;52.122;5.406;2023-02-22T16:40:21;22.93;;;12.50;;
71734;SDS011;59577;52.122;5.406;2023-02-22T16:43:03;20.15;;;11.13;;
71734;SDS011;59577;52.122;5.406;2023-02-22T16:45:37;22.50;;;12.07;;
71734;SDS011;59577;52.122;5.406;2023-02-22T16:50:45;20.80;;;11.32;;
71734;SDS011;59577;52.122;5.406;2023-02-22T16:53:15;24.57;;;12.50;;
71734;SDS011;59577;52.122;5.406;2023-02-22T16:55:48;20.77;;;11.60;;
71734;SDS011;59577;52.122;5.406;2023-02-22T16:58:17;28.85;;;12.70;;
71734;SDS011;59577;52.122;5.406;2023-02-22T17:00:44;19.35;;;11.68;;
71734;SDS011;59577;52.122;5.406;2023-02-22T17:03:14;21.85;;;13.15;;
71734;SDS011;59577;52.122;5.406;2023-02-22T17:05:43;19.00;;;10.90;;
71734;SDS011;59577;52.122;5.406;2023-02-22T17:08:10;20.48;;;12.40;;
71734;SDS011;59577;52.122;5.406;2023-02-22T17:10:36;22.60;;;13.45;;
71734;SDS011;59577;52.122;5.406;2023-02-22T17:13:04;21.55;;;11.52;;
71734;SDS011;59577;52.122;5.406;2023-02-22T17:15:48;21.77;;;12.68;;